Time;durP1;ratioP1;P1;durP2;ratioP2;P2;SDS_P1;SDS_P2;PMS_P1;PMS_P2;Temp;Humidity;BMP_temperature;BMP_pressure;BME280_temperature;BME280_humidity;BME280_pressure;Samples;Min_cycle;Max_cycle;Signal;HPM_P1;HPM_P2
2021/05/11 00:00:41;;;;;;;;;;;;;;;20.65;45.17;100432.84;2210906;39;115588;-53
2021/05/11 00:02:12;;;;;;;;;;;;;;;20.65;45.26;100432.84;2216419;39;115583;-52
2021/05/11 00:03:44;;;;;;;;;;;;;;;20.65;45.28;100432.84;2217755;39;114166;-53
2021/05/11 00:05:16;;;;;;;;;;;;;;;20.65;45.37;100432.84;2216554;39;114198;-53
2021/05/11 00:06:47;;;;;;;;;;;;;;;20.62;45.72;100428.72;2205280;39;113764;-52
2021/05/11 00:08:20;;;;;;;;;;;;;;;20.64;45.43;100429.22;2203878;39;113687;-53
2021/05/11 00:09:55;;;;;;;;;;;;;;;20.63;45.50;100427.56;2211814;39;113830;-53
2021/05/11 00:11:27;;;;;;;;;;;;;;;20.63;45.43;100427.56;2216958;39;113784;-54
2021/05/11 00:12:58;;;;;;;;;;;;;;;20.64;45.80;100426.41;2210766;39;113681;-53
2021/05/11 00:14:30;;;;;;;;;;;;;;;20.62;45.82;100425.91;2204031;39;113904;-53
2021/05/11 00:16:02;;;;;;;;;;;;;;;20.60;45.74;100424.56;2213596;39;113897;-53
2021/05/11 00:17:33;;;;;;;;;;;;;;;20.63;45.66;100427.56;2214667;39;114056;-52
2021/05/11 00:19:08;;;;;;;;;;;;;;;20.62;45.59;100433.50;2209925;39;113704;-57
2021/05/11 00:22:13;;;;;;;;;;;;;;;20.62;45.74;100417.50;2210159;39;113637;-53
2021/05/11 00:23:45;;;;;;;;;;;;;;;20.60;45.56;100419.78;2211488;39;113726;-53
2021/05/11 00:25:16;;;;;;;;;;;;;;;20.58;45.59;100422.06;2214914;39;114855;-53
2021/05/11 00:26:48;;;;;;;;;;;;;;;20.59;45.94;100420.09;2217561;39;114856;-53
2021/05/11 00:28:20;;;;;;;;;;;;;;;20.58;46.05;100418.47;2205179;39;113832;-53
2021/05/11 00:29:51;;;;;;;;;;;;;;;20.59;45.96;100420.94;2203066;39;114837;-52
2021/05/11 00:31:23;;;;;;;;;;;;;;;20.58;46.10;100415.66;2212905;39;114851;-53
2021/05/11 00:33:00;;;;;;;;;;;;;;;20.58;45.79;100419.28;2209498;39;113930;-53
2021/05/11 00:34:31;;;;;;;;;;;;;;;20.57;46.39;100419.59;2212276;39;115529;-53
2021/05/11 00:36:04;;;;;;;;;;;;;;;20.58;46.01;100415.66;2214272;39;114164;-53
2021/05/11 00:37:36;;;;;;;;;;;;;;;20.57;45.78;100417.63;2210488;39;115023;-52
2021/05/11 00:39:08;;;;;;;;;;;;;;;20.59;45.99;100422.91;2215629;39;114941;-53
2021/05/11 00:40:40;;;;;;;;;;;;;;;20.58;46.25;100427.69;2200676;39;113924;-53
2021/05/11 00:42:12;;;;;;;;;;;;;;;20.58;46.15;100422.06;2209550;39;113887;-53
2021/05/11 00:43:44;;;;;;;;;;;;;;;20.57;46.08;100422.41;2212159;39;114906;-53
2021/05/11 00:45:16;;;;;;;;;;;;;;;20.58;46.41;100421.28;2208718;39;115107;-53
2021/05/11 00:46:55;;;;;;;;;;;;;;;20.56;46.58;100427.19;2208051;39;115565;-52
2021/05/11 00:48:28;;;;;;;;;;;;;;;20.57;46.39;100428.88;2215642;39;114607;-53
2021/05/11 00:50:00;;;;;;;;;;;;;;;20.56;46.13;100429.16;2216595;39;114706;-53
2021/05/11 00:51:31;;;;;;;;;;;;;;;20.56;46.06;100417.94;2217343;39;115689;-52
2021/05/11 00:53:02;;;;;;;;;;;;;;;20.56;46.47;100413.16;2217002;39;115883;-53
2021/05/11 00:54:34;;;;;;;;;;;;;;;20.57;46.29;100419.59;2217581;39;114785;-54
2021/05/11 00:56:06;;;;;;;;;;;;;;;20.56;46.54;100415.13;2209157;39;115638;-53
2021/05/11 00:57:37;;;;;;;;;;;;;;;20.56;46.23;100413.16;2208815;39;115500;-52
2021/05/11 00:59:15;;;;;;;;;;;;;;;20.54;46.24;100418.25;2212274;39;115750;-53
2021/05/11 01:00:47;;;;;;;;;;;;;;;20.56;46.36;100417.94;2213122;39;116025;-53
2021/05/11 01:02:19;;;;;;;;;;;;;;;20.56;46.58;100417.94;2215582;39;115745;-53
2021/05/11 01:03:50;;;;;;;;;;;;;;;20.55;46.47;100419.09;2216386;39;114720;-53
2021/05/11 01:05:23;;;;;;;;;;;;;;;20.54;46.28;100418.25;2208605;39;115920;-53
2021/05/11 01:06:55;;;;;;;;;;;;;;;20.55;46.36;100405.06;2211100;39;114543;-53
2021/05/11 01:08:26;;;;;;;;;;;;;;;20.55;46.66;100411.50;2212435;39;116200;-53
2021/05/11 01:09:58;;;;;;;;;;;;;;;20.52;46.82;100408.50;2215390;39;113617;-53
2021/05/11 01:11:30;;;;;;;;;;;;;;;20.53;46.29;100410.19;2217498;39;113856;-53
2021/05/11 01:13:01;;;;;;;;;;;;;;;20.55;46.18;100413.47;2210424;39;113673;-53
2021/05/11 01:14:32;;;;;;;;;;;;;;;20.53;46.68;100413.00;2214545;39;113577;-52
2021/05/11 01:16:04;;;;;;;;;;;;;;;20.54;46.83;100409.00;2210058;39;113802;-53
2021/05/11 01:17:37;;;;;;;;;;;;;;;20.52;47.06;100409.34;2215236;39;114379;-52
2021/05/11 01:20:48;;;;;;;;;;;;;;;20.52;47.08;100403.72;2214617;39;113908;-53
2021/05/11 01:24:02;;;;;;;;;;;;;;;20.52;46.93;100409.34;2217408;39;113731;-53
2021/05/11 01:25:33;;;;;;;;;;;;;;;20.53;46.91;100418.59;2217637;39;113682;-53
2021/05/11 02:17:55;;;;;;;;;;;;;;;20.48;47.66;100401.88;2204533;39;115719;-52
2021/05/11 02:24:15;;;;;;;;;;;;;;;20.45;47.83;100406.16;2214109;39;113914;-53
2021/05/11 02:25:47;;;;;;;;;;;;;;;20.47;47.84;100403.88;2212129;39;113763;-54
2021/05/11 02:27:18;;;;;;;;;;;;;;;20.46;48.24;100404.19;2215786;39;113685;-53
2021/05/11 02:28:51;;;;;;;;;;;;;;;20.46;47.99;100399.41;2209346;39;114464;-53
2021/05/11 02:30:22;;;;;;;;;;;;;;;20.45;47.71;100400.53;2210062;39;113838;-53
2021/05/11 02:31:54;;;;;;;;;;;;;;;20.45;48.34;100397.72;2210131;39;113545;-52
2021/05/11 02:33:25;;;;;;;;;;;;;;;20.44;47.79;100404.53;2213239;39;113985;-53
2021/05/11 02:34:57;;;;;;;;;;;;;;;20.46;47.89;100395.75;2215479;39;113612;-53
2021/05/11 02:36:28;;;;;;;;;;;;;;;20.45;48.09;100399.72;2209444;39;114399;-52
2021/05/11 02:37:59;;;;;;;;;;;;;;;20.44;47.96;100401.72;2215997;39;114779;-53
2021/05/11 02:39:31;;;;;;;;;;;;;;;20.45;47.75;100403.34;2217273;39;115265;-53
2021/05/11 02:41:03;;;;;;;;;;;;;;;20.44;47.52;100407.31;2216336;39;114906;-52
2021/05/11 02:42:35;;;;;;;;;;;;;;;20.43;47.77;100411.28;2216572;39;114972;-53
2021/05/11 02:44:07;;;;;;;;;;;;;;;20.43;48.03;100405.66;2217871;39;114853;-52
2021/05/11 02:45:38;;;;;;;;;;;;;;;20.44;47.51;100410.13;2217596;39;115054;-53
2021/05/11 02:47:10;;;;;;;;;;;;;;;20.43;47.50;100397.25;2217774;39;115489;-53
2021/05/11 02:48:41;;;;;;;;;;;;;;;20.41;47.63;100399.53;2210545;39;114234;-53
2021/05/11 02:50:14;;;;;;;;;;;;;;;20.44;47.51;100398.06;2205589;39;115271;-54
2021/05/11 02:51:47;;;;;;;;;;;;;;;20.41;47.73;100403.16;2208923;39;114811;-53
2021/05/11 02:53:18;;;;;;;;;;;;;;;20.43;47.61;100397.25;2213587;39;114072;-52
2021/05/11 02:54:49;;;;;;;;;;;;;;;20.41;47.98;100405.13;2216472;39;115307;-52
2021/05/11 02:56:21;;;;;;;;;;;;;;;20.42;47.91;100404.00;2211738;39;114883;-53
2021/05/11 02:57:54;;;;;;;;;;;;;;;20.41;47.91;100403.16;2212322;39;114789;-53
2021/05/11 02:59:26;;;;;;;;;;;;;;;20.41;47.88;100396.72;2210397;39;114856;-52
2021/05/11 03:00:57;;;;;;;;;;;;;;;20.39;47.90;100402.69;2212403;39;115547;-53
2021/05/11 03:02:29;;;;;;;;;;;;;;;20.39;47.82;100407.47;2217487;39;114531;-53
2021/05/11 03:04:00;;;;;;;;;;;;;;;20.40;47.66;100403.47;2215843;39;116674;-53
2021/05/11 03:05:32;;;;;;;;;;;;;;;20.41;48.36;100400.34;2215192;39;115944;-53
2021/05/11 03:07:03;;;;;;;;;;;;;;;20.41;47.50;100405.13;2215310;39;115145;-53
2021/05/11 03:08:35;;;;;;;;;;;;;;;20.40;45.59;100401.50;2210189;39;114576;-53
2021/05/11 03:10:09;;;;;;;;;;;;;;;20.41;47.29;100405.97;2215584;39;115517;-53
2021/05/11 03:11:40;;;;;;;;;;;;;;;20.40;47.87;100411.91;2217315;39;114616;-52
2021/05/11 03:13:12;;;;;;;;;;;;;;;20.40;47.79;100414.69;2217408;39;115643;-53
2021/05/11 03:14:43;;;;;;;;;;;;;;;20.39;47.74;100404.66;2210359;39;114611;-53
2021/05/11 03:16:16;;;;;;;;;;;;;;;20.39;47.54;100399.03;2215465;39;115643;-54
2021/05/11 03:17:47;;;;;;;;;;;;;;;20.38;47.96;100409.44;2213854;39;115881;-53
2021/05/11 03:19:19;;;;;;;;;;;;;;;20.38;47.77;100409.44;2213517;39;116069;-53
2021/05/11 03:20:50;;;;;;;;;;;;;;;20.38;47.87;100409.44;2216657;39;115071;-53
2021/05/11 03:22:22;;;;;;;;;;;;;;;20.37;47.92;100409.75;2216900;39;113808;-53
2021/05/11 03:23:53;;;;;;;;;;;;;;;20.39;47.90;100405.47;2211856;39;113830;-53
2021/05/11 03:25:25;;;;;;;;;;;;;;;20.37;47.92;100406.94;2217766;39;113702;-53
2021/05/11 03:26:56;;;;;;;;;;;;;;;20.37;47.84;100406.94;2215653;39;114304;-53
2021/05/11 03:28:28;;;;;;;;;;;;;;;20.37;47.59;100415.34;2213326;39;113747;-53
2021/05/11 03:29:59;;;;;;;;;;;;;;;20.36;47.91;100408.91;2211897;39;113922;-53
2021/05/11 03:31:31;;;;;;;;;;;;;;;20.35;47.95;100401.63;2218204;39;113572;-52
2021/05/11 03:33:04;;;;;;;;;;;;;;;20.36;47.72;100413.69;2217615;39;114021;-53
2021/05/11 03:34:35;;;;;;;;;;;;;;;20.36;47.38;100414.53;2212600;39;113943;-56
2021/05/11 03:36:07;;;;;;;;;;;;;;;20.37;47.58;100415.34;2211457;39;114024;-53
2021/05/11 03:37:39;;;;;;;;;;;;;;;20.37;47.36;100418.16;2215249;39;113773;-53
2021/05/11 03:39:11;;;;;;;;;;;;;;;20.36;47.73;100420.13;2215629;39;113695;-52
2021/05/11 03:40:43;;;;;;;;;;;;;;;20.36;47.35;100422.09;2216895;39;113624;-53
2021/05/11 03:43:54;;;;;;;;;;;;;;;20.35;47.65;100417.66;2205184;39;114831;-53
2021/05/11 03:45:29;;;;;;;;;;;;;;;20.34;47.55;100414.03;2215573;39;113773;-52
2021/05/11 03:47:01;;;;;;;;;;;;;;;20.33;47.53;100417.16;2212196;39;115201;-52
2021/05/11 03:48:33;;;;;;;;;;;;;;;20.34;47.51;100421.63;2215261;39;114653;-52
2021/05/11 03:50:06;;;;;;;;;;;;;;;20.34;47.61;100418.81;2213591;39;114948;-53
2021/05/11 03:51:38;;;;;;;;;;;;;;;20.32;47.90;100416.31;2215483;39;115227;-52
2021/05/11 03:53:10;;;;;;;;;;;;;;;20.32;48.00;100421.94;2214761;39;115275;-53
2021/05/11 03:54:42;;;;;;;;;;;;;;;20.32;47.60;100426.69;2217005;39;114778;-55
2021/05/11 03:56:14;;;;;;;;;;;;;;;20.31;47.83;100434.28;2217714;39;115094;-53
2021/05/11 03:57:46;;;;;;;;;;;;;;;20.30;47.76;100438.25;2210231;39;114812;-52
2021/05/11 03:59:20;;;;;;;;;;;;;;;20.31;47.92;100441.88;2214766;39;113806;-53
2021/05/11 04:00:52;;;;;;;;;;;;;;;20.30;48.12;100449.50;2213095;39;115460;-53
2021/05/11 04:02:25;;;;;;;;;;;;;;;20.32;47.81;100451.94;2217043;39;115109;-53
2021/05/11 04:03:58;;;;;;;;;;;;;;;20.33;47.78;100445.19;2218302;39;115121;-52
2021/05/11 04:05:32;;;;;;;;;;;;;;;20.32;47.83;100443.53;2216325;39;114798;-53
2021/05/11 04:07:06;;;;;;;;;;;;;;;20.30;47.58;100445.84;2210399;39;115328;-53
2021/05/11 04:08:45;;;;;;;;;;;;;;;20.30;48.07;100443.88;2215448;39;114949;-53
2021/05/11 04:12:08;;;;;;;;;;;;;;;20.29;48.21;100438.53;2206786;39;115045;-53
2021/05/11 04:16:54;;;;;;;;;;;;;;;20.28;47.92;100446.13;2210375;39;115818;-53
2021/05/11 04:18:26;;;;;;;;;;;;;;;20.29;47.92;100444.97;2211213;39;116607;-52
2021/05/11 04:19:58;;;;;;;;;;;;;;;20.28;47.95;100440.50;2208354;39;115046;-53
2021/05/11 04:21:32;;;;;;;;;;;;;;;20.27;48.10;100443.63;2205979;39;115973;-53
2021/05/11 04:23:05;;;;;;;;;;;;;;;20.27;48.24;100449.25;2211085;39;115453;-52
2021/05/11 04:24:37;;;;;;;;;;;;;;;20.25;47.79;100445.94;2210826;39;115451;-53
2021/05/11 04:26:11;;;;;;;;;;;;;;;20.26;47.78;100454.03;2205344;39;115893;-53
2021/05/11 04:27:44;;;;;;;;;;;;;;;20.26;48.12;100447.59;2211612;39;115520;-53
2021/05/11 04:29:16;;;;;;;;;;;;;;;20.27;47.65;100443.63;2211064;39;113856;-53
2021/05/11 04:30:48;;;;;;;;;;;;;;;20.26;48.03;100450.41;2208333;39;113982;-53
2021/05/11 04:32:21;;;;;;;;;;;;;;;20.27;48.16;100444.47;2205084;39;113530;-52
2021/05/11 04:33:56;;;;;;;;;;;;;;;20.26;47.80;100451.22;2207293;39;113760;-52
2021/05/11 04:35:29;;;;;;;;;;;;;;;20.25;47.97;100448.75;2210502;39;113730;-53
2021/05/11 04:37:02;;;;;;;;;;;;;;;20.26;48.30;100456.03;2210323;39;113925;-53
2021/05/11 04:38:35;;;;;;;;;;;;;;;20.25;47.97;100457.16;2208536;39;113875;-52
2021/05/11 04:40:09;;;;;;;;;;;;;;;20.25;48.13;100457.16;2206358;39;113643;-53
2021/05/11 04:41:41;;;;;;;;;;;;;;;20.25;47.97;100463.59;2210343;39;114065;-55
2021/05/11 04:43:16;;;;;;;;;;;;;;;20.25;48.09;100457.16;2209212;39;113668;-53
2021/05/11 04:44:49;;;;;;;;;;;;;;;20.24;48.09;100455.50;2208883;39;113814;-52
2021/05/11 04:46:25;;;;;;;;;;;;;;;20.24;48.20;100455.50;2210988;39;113752;-53
2021/05/11 04:47:59;;;;;;;;;;;;;;;20.24;47.90;100455.50;2211207;39;113721;-53
2021/05/11 04:49:33;;;;;;;;;;;;;;;20.23;47.80;100463.09;2208037;39;113687;-53
2021/05/11 04:51:06;;;;;;;;;;;;;;;20.23;48.21;100463.09;2206861;39;115675;-53
2021/05/11 04:52:40;;;;;;;;;;;;;;;20.23;47.87;100462.25;2207360;39;114924;-53
2021/05/11 04:54:12;;;;;;;;;;;;;;;20.23;47.98;100460.28;2207265;39;114840;-53
2021/05/11 04:55:45;;;;;;;;;;;;;;;20.24;47.96;100459.13;2207564;39;114019;-53
2021/05/11 04:57:18;;;;;;;;;;;;;;;20.24;47.88;100458.31;2210586;39;114210;-53
2021/05/11 04:58:50;;;;;;;;;;;;;;;20.22;48.10;100466.19;2207455;39;114830;-53
2021/05/11 05:00:23;;;;;;;;;;;;;;;20.21;47.83;100467.38;2210254;39;114099;-52
2021/05/11 05:01:56;;;;;;;;;;;;;;;20.21;47.80;100473.81;2210610;39;114970;-53
2021/05/11 05:03:29;;;;;;;;;;;;;;;20.22;48.21;100469.00;2204922;39;114863;-53
2021/05/11 05:05:01;;;;;;;;;;;;;;;20.22;47.95;100480.22;2209291;39;115405;-52
2021/05/11 05:06:35;;;;;;;;;;;;;;;20.21;48.03;100468.19;2205186;39;114887;-53
2021/05/11 05:08:07;;;;;;;;;;;;;;;20.21;48.00;100471.00;2206770;39;114752;-52
2021/05/11 05:09:39;;;;;;;;;;;;;;;20.21;48.19;100472.97;2205291;39;113963;-53
2021/05/11 05:11:11;;;;;;;;;;;;;;;20.20;48.21;100482.53;2207477;39;114849;-53
2021/05/11 05:12:45;;;;;;;;;;;;;;;20.20;47.87;100486.16;2205539;39;115971;-53
2021/05/11 05:14:20;;;;;;;;;;;;;;;20.20;47.96;100482.53;2206709;39;115547;-55
2021/05/11 05:15:52;;;;;;;;;;;;;;;20.20;48.49;100482.53;2211293;39;114857;-53
2021/05/11 05:17:24;;;;;;;;;;;;;;;20.21;48.51;100492.63;2204476;39;114538;-53
2021/05/11 05:18:56;;;;;;;;;;;;;;;20.20;47.92;100488.16;2215245;39;115788;-53
2021/05/11 05:20:28;;;;;;;;;;;;;;;20.20;48.42;100482.53;2209843;39;114625;-53
2021/05/11 05:22:01;;;;;;;;;;;;;;;20.20;48.36;100482.53;2209619;39;115970;-53
2021/05/11 05:23:37;;;;;;;;;;;;;;;20.21;48.28;100482.22;2211527;39;115757;-53
2021/05/11 05:25:13;;;;;;;;;;;;;;;20.21;48.10;100487.00;2211139;39;114689;-53
2021/05/11 05:26:50;;;;;;;;;;;;;;;20.20;48.35;100480.56;2205416;39;115687;-53
2021/05/11 05:28:25;;;;;;;;;;;;;;;20.20;48.52;100482.53;2211169;39;115891;-53
2021/05/11 05:29:58;;;;;;;;;;;;;;;20.19;48.39;100480.88;2216101;39;115200;-54
2021/05/11 05:31:31;;;;;;;;;;;;;;;20.18;48.76;100479.19;2211280;39;114507;-53
2021/05/11 05:33:03;;;;;;;;;;;;;;;20.19;48.69;100478.91;2212922;39;114699;-53
2021/05/11 05:34:35;;;;;;;;;;;;;;;20.18;48.36;100479.19;2217679;39;113891;-53
2021/05/11 05:36:09;;;;;;;;;;;;;;;20.18;48.86;100482.84;2210242;39;114053;-52
2021/05/11 05:39:17;;;;;;;;;;;;;;;20.20;48.38;100482.53;2215015;39;113613;-53
2021/05/11 05:40:56;;;;;;;;;;;;;;;20.19;48.27;100484.50;2217255;39;114023;-52
2021/05/11 05:42:28;;;;;;;;;;;;;;;20.19;48.37;100487.31;2210059;39;113755;-52
2021/05/11 05:44:01;;;;;;;;;;;;;;;20.19;48.37;100489.28;2211938;39;113707;-52
2021/05/11 05:45:34;;;;;;;;;;;;;;;20.19;48.21;100497.69;2213769;39;114039;-53
2021/05/11 05:47:07;;;;;;;;;;;;;;;20.17;48.85;100500.81;2216094;39;113800;-52
2021/05/11 05:48:40;;;;;;;;;;;;;;;20.18;48.35;100499.66;2216392;39;114054;-53
2021/05/11 05:50:12;;;;;;;;;;;;;;;20.18;48.46;100494.06;2214050;39;113821;-52
2021/05/11 05:51:48;;;;;;;;;;;;;;;20.18;49.09;100498.84;2217281;39;113739;-53
2021/05/11 05:54:56;;;;;;;;;;;;;;;20.19;49.21;100492.09;2208895;39;113662;-52
2021/05/11 05:56:29;;;;;;;;;;;;;;;20.23;48.57;100493.94;2216782;39;113757;-53
2021/05/11 05:58:01;;;;;;;;;;;;;;;20.23;48.93;100496.75;2216138;39;115251;-53
2021/05/11 05:59:39;;;;;;;;;;;;;;;20.16;44.72;100498.34;2216701;39;114245;-53
2021/05/11 06:01:12;;;;;;;;;;;;;;;20.07;43.33;100505.84;2217314;39;114854;-53
2021/05/11 06:02:45;;;;;;;;;;;;;;;20.02;42.78;100501.19;2209626;39;113937;-53
2021/05/11 06:04:19;;;;;;;;;;;;;;;20.00;44.03;100503.47;2207430;39;115013;-52
2021/05/11 06:05:52;;;;;;;;;;;;;;;20.04;46.26;100503.66;2211018;39;114217;-53
2021/05/11 06:07:24;;;;;;;;;;;;;;;20.10;46.18;100503.22;2216669;39;114517;-52
2021/05/11 06:08:58;;;;;;;;;;;;;;;20.15;46.62;100508.72;2217134;39;114756;-53
2021/05/11 06:12:14;;;;;;;;;;;;;;;20.25;46.58;100502.03;2214530;39;114950;-53
2021/05/11 06:13:56;;;;;;;;;;;;;;;20.30;46.53;100510.38;2207727;39;114448;-53
2021/05/11 06:18:42;;;;;;;;;;;;;;;20.44;46.80;100507.50;2220380;39;113898;-53
2021/05/11 06:20:17;;;;;;;;;;;;;;;20.48;46.83;100506.56;2207637;39;116656;-53
2021/05/11 06:21:50;;;;;;;;;;;;;;;20.53;47.32;100508.41;2213530;39;114657;-53
2021/05/11 06:23:23;;;;;;;;;;;;;;;20.59;47.49;100515.53;2210748;39;115031;-53
2021/05/11 06:24:56;;;;;;;;;;;;;;;20.65;47.27;100508.66;2215532;39;115740;-53
2021/05/11 06:26:28;;;;;;;;;;;;;;;20.70;47.73;100509.34;2216866;39;115537;-52
2021/05/11 06:28:03;;;;;;;;;;;;;;;20.76;47.22;100512.84;2211856;39;114693;-53
2021/05/11 06:29:38;;;;;;;;;;;;;;;20.82;47.19;100511.56;2211392;39;115865;-52
2021/05/11 06:31:11;;;;;;;;;;;;;;;20.86;46.77;100504.16;2204980;39;115149;-53
2021/05/11 06:32:43;;;;;;;;;;;;;;;20.92;47.17;100510.47;2215586;39;115781;-53
2021/05/11 06:34:17;;;;;;;;;;;;;;;20.98;47.04;100507.22;2212931;39;114645;-55
2021/05/11 06:35:52;;;;;;;;;;;;;;;21.04;46.94;100510.69;2212667;39;114529;-53
2021/05/11 06:37:26;;;;;;;;;;;;;;;21.09;46.55;100502.94;2215404;39;115267;-53
2021/05/11 06:39:01;;;;;;;;;;;;;;;21.16;46.64;100505.34;2209848;39;115344;-53
2021/05/11 06:40:37;;;;;;;;;;;;;;;21.20;46.25;100501.56;2212943;39;114534;-53
2021/05/11 06:42:11;;;;;;;;;;;;;;;21.24;46.29;100490.50;2215915;39;113861;-53
2021/05/11 06:43:46;;;;;;;;;;;;;;;21.31;45.95;100490.84;2218443;39;113935;-53
2021/05/11 06:50:25;;;;;;;;;;;;;;;21.51;46.05;100497.88;2212099;39;113926;-52
2021/05/11 06:53:36;;;;;;;;;;;;;;;21.59;46.07;100497.06;2211448;39;113727;-53
2021/05/11 06:55:15;;;;;;;;;;;;;;;21.63;46.04;100492.44;2204660;39;113616;-53
2021/05/11 06:56:48;;;;;;;;;;;;;;;21.66;45.91;100495.44;2216571;39;114525;-53
2021/05/11 06:58:22;;;;;;;;;;;;;;;21.69;45.88;100494.78;2217971;39;113913;-53
2021/05/11 06:59:55;;;;;;;;;;;;;;;21.71;46.16;100503.69;2217813;39;113692;-53
2021/05/11 07:01:33;;;;;;;;;;;;;;;21.74;46.13;100486.19;2210338;39;113907;-53
2021/05/11 07:03:06;;;;;;;;;;;;;;;21.78;45.71;100488.34;2209971;39;113945;-52
2021/05/11 07:04:39;;;;;;;;;;;;;;;21.81;45.91;100482.03;2208444;39;114001;-53
2021/05/11 07:06:14;;;;;;;;;;;;;;;21.82;45.70;100483.72;2207078;39;114209;-52
2021/05/11 07:07:52;;;;;;;;;;;;;;;21.84;45.68;100487.88;2216166;39;116508;-53
2021/05/11 07:09:37;;;;;;;;;;;;;;;21.86;45.63;100479.91;2216394;39;114336;-52
2021/05/11 07:14:27;;;;;;;;;;;;;;;21.92;45.66;100480.59;2210710;39;113880;-53
2021/05/11 07:16:00;;;;;;;;;;;;;;;21.94;45.77;100478.31;2206701;39;114286;-52
2021/05/11 07:17:37;;;;;;;;;;;;;;;21.95;45.74;100480.78;2215993;39;115212;-52
2021/05/11 07:19:10;;;;;;;;;;;;;;;21.97;45.66;100486.09;2218234;39;114857;-53
2021/05/11 07:20:45;;;;;;;;;;;;;;;21.98;45.72;100488.59;2212138;39;114161;-53
2021/05/11 07:22:20;;;;;;;;;;;;;;;21.99;45.54;100483.75;2210673;39;114671;-53
2021/05/11 07:23:53;;;;;;;;;;;;;;;21.99;45.09;100490.22;2204750;39;115336;-52
2021/05/11 07:25:26;;;;;;;;;;;;;;;22.01;45.19;100484.28;2214970;39;114931;-52
2021/05/11 07:30:14;;;;;;;;;;;;;;;22.02;45.07;100485.94;2207434;39;114405;-53
2021/05/11 07:31:48;;;;;;;;;;;;;;;22.02;45.09;100492.38;2215954;39;114839;-53
2021/05/11 07:33:24;;;;;;;;;;;;;;;22.03;44.97;100494.03;2216404;39;114865;-53
2021/05/11 07:34:56;;;;;;;;;;;;;;;22.04;45.29;100500.47;2212900;39;114731;-53
2021/05/11 07:36:29;;;;;;;;;;;;;;;22.04;45.16;100508.91;2217686;39;115448;-53
2021/05/11 07:38:01;;;;;;;;;;;;;;;22.03;45.18;100499.66;2210281;39;115577;-53
2021/05/11 07:39:33;;;;;;;;;;;;;;;22.04;45.34;100514.53;2215571;39;114892;-53
2021/05/11 07:41:07;;;;;;;;;;;;;;;22.05;45.24;100499.31;2210251;39;116494;-53
2021/05/11 07:42:39;;;;;;;;;;;;;;;22.04;45.15;100500.47;2208347;39;115772;-52
2021/05/11 07:44:13;;;;;;;;;;;;;;;22.05;45.23;100510.59;2214669;39;115514;-53
2021/05/11 07:47:32;;;;;;;;;;;;;;;22.04;44.86;100514.53;2211386;39;114860;-53
2021/05/11 08:16:42;;;;;;;;;;;;;;;21.99;45.22;100501.47;2204498;39;114175;-52
2021/05/11 08:29:30;;;;;;;;;;;;;;;21.93;45.73;100493.53;2205070;39;113815;-52
2021/05/11 08:31:02;;;;;;;;;;;;;;;21.93;45.80;100490.72;2210451;39;114210;-53
2021/05/11 08:32:43;;;;;;;;;;;;;;;21.94;45.87;100486.75;2208147;39;114258;-52
2021/05/11 08:34:16;;;;;;;;;;;;;;;21.93;46.33;100482.28;2206593;39;114664;-53
2021/05/11 08:35:50;;;;;;;;;;;;;;;21.91;46.76;100490.19;2205253;39;114723;-53
2021/05/11 08:37:23;;;;;;;;;;;;;;;21.90;46.35;100488.50;2204982;39;115162;-53
2021/05/11 08:38:57;;;;;;;;;;;;;;;21.92;46.74;100484.22;2204118;39;114572;-53
2021/05/11 08:40:32;;;;;;;;;;;;;;;21.91;46.74;100488.19;2200537;39;115185;-53
2021/05/11 08:42:12;;;;;;;;;;;;;;;21.92;46.49;100487.03;2200733;39;114682;-53
2021/05/11 08:43:48;;;;;;;;;;;;;;;21.86;45.53;100479.09;2208823;39;114617;-53
2021/05/11 08:45:21;;;;;;;;;;;;;;;21.85;45.68;100491.50;2211427;39;114766;-53
2021/05/11 08:46:54;;;;;;;;;;;;;;;21.82;45.15;100494.97;2211158;39;117128;-53
2021/05/11 08:48:29;;;;;;;;;;;;;;;21.79;45.04;100484.38;2209514;39;114866;-54
2021/05/11 08:50:01;;;;;;;;;;;;;;;21.82;44.88;100480.91;2202784;39;115533;-53
2021/05/11 08:51:47;;;;;;;;;;;;;;;21.82;45.33;100486.53;2205114;39;116075;-53
2021/05/11 09:00:11;;;;;;;;;;;;;;;21.81;44.57;100494.13;2209072;39;114155;-53
2021/05/11 09:06:45;;;;;;;;;;;;;;;21.78;44.62;100485.53;2203370;39;113834;-53
2021/05/11 09:08:28;;;;;;;;;;;;;;;21.78;44.72;100477.09;2210054;39;113890;-53
2021/05/11 09:15:37;;;;;;;;;;;;;;;21.77;44.53;100467.00;2207031;39;113840;-53
2021/05/11 09:23:32;;;;;;;;;;;;;;;21.76;44.80;100468.97;2206270;39;114523;-53
2021/05/11 09:23:40;;;;;;;;;;;;;;;21.75;44.70;100478.59;2213110;39;113899;-53
2021/05/11 09:25:15;;;;;;;;;;;;;;;21.74;44.83;100472.13;2212757;39;114893;-52
2021/05/11 09:33:21;;;;;;;;;;;;;;;21.76;44.91;100462.53;2210920;39;114838;-52
2021/05/11 09:56:11;;;;;;;;;;;;;;;21.51;44.99;100479.03;2210974;39;116052;-52
2021/05/11 10:27:22;;;;;;;;;;;;;;;20.74;38.98;100470.22;2216454;39;113874;-54
2021/05/11 10:40:56;;;;;;;;;;;;;;;20.48;38.60;100472.06;2208765;39;114039;-53
2021/05/11 10:43:44;;;;;;;;;;;;;;;20.36;38.11;100464.19;2204860;39;116278;-53
2021/05/11 10:45:01;;;;;;;;;;;;;;;20.35;38.69;100465.38;2206206;39;113817;-53
2021/05/11 10:48:15;;;;;;;;;;;;;;;20.30;38.59;100466.31;2216288;39;114377;-52
2021/05/11 10:49:52;;;;;;;;;;;;;;;20.31;38.49;100467.13;2213963;39;113909;-53
2021/05/11 10:51:30;;;;;;;;;;;;;;;20.26;38.09;100475.66;2216957;39;115432;-54
2021/05/11 10:53:11;;;;;;;;;;;;;;;20.22;38.39;100471.81;2208410;39;115278;-53
2021/05/11 10:54:49;;;;;;;;;;;;;;;20.17;37.84;100472.75;2211084;39;114840;-52
2021/05/11 10:58:02;;;;;;;;;;;;;;;19.96;38.04;100464.03;2216265;39;115458;-53
2021/05/11 10:59:42;;;;;;;;;;;;;;;19.96;38.02;100458.41;2214231;39;114847;-53
2021/05/11 11:01:30;;;;;;;;;;;;;;;19.99;37.45;100465.34;2215129;39;114841;-53
2021/05/11 11:03:05;;;;;;;;;;;;;;;19.78;37.28;100459.41;2215099;39;115559;-53
2021/05/11 11:04:40;;;;;;;;;;;;;;;19.78;37.20;100464.16;2208968;39;115799;-53
2021/05/11 11:06:16;;;;;;;;;;;;;;;19.76;37.64;100461.66;2214710;39;115434;-53
2021/05/11 11:07:49;;;;;;;;;;;;;;;19.77;37.51;100456.91;2215679;39;114549;-53
2021/05/11 11:09:22;;;;;;;;;;;;;;;19.76;37.96;100461.66;2215744;39;114631;-53
2021/05/11 11:11:11;;;;;;;;;;;;;;;19.90;37.90;100461.63;2208325;39;114617;-52
2021/05/11 11:12:44;;;;;;;;;;;;;;;20.03;38.04;100459.97;2207430;39;114540;-52
2021/05/11 11:14:18;;;;;;;;;;;;;;;20.13;38.34;100466.13;2214019;39;114513;-53
2021/05/11 11:16:01;;;;;;;;;;;;;;;20.19;38.77;100456.44;2206679;39;115388;-54
2021/05/11 11:17:39;;;;;;;;;;;;;;;20.29;38.94;100453.41;2206999;39;114571;-53
2021/05/11 11:19:12;;;;;;;;;;;;;;;20.34;38.89;100456.13;2209617;39;115541;-53
2021/05/11 11:20:49;;;;;;;;;;;;;;;20.42;39.09;100457.31;2207841;39;113879;-53
2021/05/11 11:24:06;;;;;;;;;;;;;;;20.45;39.55;100447.41;2210119;39;114224;-53
2021/05/11 11:25:42;;;;;;;;;;;;;;;20.46;39.67;100447.09;2209821;39;114091;-53
2021/05/11 11:27:14;;;;;;;;;;;;;;;20.48;39.44;100444.81;2211819;39;114038;-52
2021/05/11 11:28:46;;;;;;;;;;;;;;;20.51;39.86;100446.13;2210959;39;113803;-53
2021/05/11 11:30:20;;;;;;;;;;;;;;;20.52;39.42;100442.19;2208505;39;113778;-53
2021/05/11 11:31:53;;;;;;;;;;;;;;;20.57;39.47;100461.72;2208764;39;113865;-53
2021/05/11 11:33:26;;;;;;;;;;;;;;;20.55;39.49;100455.56;2210470;39;113898;-53
2021/05/11 11:34:59;;;;;;;;;;;;;;;20.51;39.62;100449.78;2209865;39;113935;-53
2021/05/11 11:36:33;;;;;;;;;;;;;;;20.54;39.88;100453.91;2208001;39;114172;-53
2021/05/11 11:38:06;;;;;;;;;;;;;;;20.53;39.77;100458.72;2200970;39;113822;-53
2021/05/11 11:39:42;;;;;;;;;;;;;;;20.53;39.63;100453.09;2206578;39;114169;-53
2021/05/11 11:41:15;;;;;;;;;;;;;;;20.58;40.03;100447.34;2209233;39;114213;-53